sensor_id;sensor_type;location;lat;lon;timestamp;P1;durP1;ratioP1;P2;durP2;ratioP2
52124;SDS011;38119;52.710;6.398;2023-03-16T00:00:49;8.13;;;3.20;;
52124;SDS011;38119;52.710;6.398;2023-03-16T00:03:15;11.48;;;3.70;;
52124;SDS011;38119;52.710;6.398;2023-03-16T00:05:44;7.70;;;3.47;;
52124;SDS011;38119;52.710;6.398;2023-03-16T00:08:10;7.22;;;3.50;;
52124;SDS011;38119;52.710;6.398;2023-03-16T00:10:36;9.20;;;3.55;;
52124;SDS011;38119;52.710;6.398;2023-03-16T00:13:05;7.20;;;3.90;;
52124;SDS011;38119;52.710;6.398;2023-03-16T00:15:31;8.85;;;3.78;;
52124;SDS011;38119;52.710;6.398;2023-03-16T00:17:56;7.90;;;3.38;;
52124;SDS011;38119;52.710;6.398;2023-03-16T00:20:22;10.70;;;3.80;;
52124;SDS011;38119;52.710;6.398;2023-03-16T00:22:47;8.82;;;3.55;;
52124;SDS011;38119;52.710;6.398;2023-03-16T00:25:13;8.07;;;3.67;;
52124;SDS011;38119;52.710;6.398;2023-03-16T00:27:38;11.38;;;3.45;;
52124;SDS011;38119;52.710;6.398;2023-03-16T00:30:05;9.85;;;3.80;;
52124;SDS011;38119;52.710;6.398;2023-03-16T00:32:32;9.18;;;3.80;;
52124;SDS011;38119;52.710;6.398;2023-03-16T00:35:00;8.65;;;3.80;;
52124;SDS011;38119;52.710;6.398;2023-03-16T00:37:27;7.68;;;3.50;;
52124;SDS011;38119;52.710;6.398;2023-03-16T00:39:53;8.93;;;4.40;;
52124;SDS011;38119;52.710;6.398;2023-03-16T00:42:20;9.18;;;4.22;;
52124;SDS011;38119;52.710;6.398;2023-03-16T00:44:57;10.65;;;4.13;;
52124;SDS011;38119;52.710;6.398;2023-03-16T00:47:29;8.65;;;3.65;;
52124;SDS011;38119;52.710;6.398;2023-03-16T00:49:57;10.40;;;3.88;;
52124;SDS011;38119;52.710;6.398;2023-03-16T00:52:23;10.57;;;3.95;;
52124;SDS011;38119;52.710;6.398;2023-03-16T00:54:51;7.50;;;3.83;;
52124;SDS011;38119;52.710;6.398;2023-03-16T00:57:17;9.13;;;3.88;;
52124;SDS011;38119;52.710;6.398;2023-03-16T00:59:45;9.00;;;3.70;;
52124;SDS011;38119;52.710;6.398;2023-03-16T01:02:11;10.05;;;3.85;;
52124;SDS011;38119;52.710;6.398;2023-03-16T01:04:37;8.27;;;3.97;;
52124;SDS011;38119;52.710;6.398;2023-03-16T01:07:07;9.23;;;4.10;;
52124;SDS011;38119;52.710;6.398;2023-03-16T01:09:34;11.25;;;4.55;;
52124;SDS011;38119;52.710;6.398;2023-03-16T01:12:08;7.68;;;4.03;;
52124;SDS011;38119;52.710;6.398;2023-03-16T01:14:36;7.40;;;3.80;;
52124;SDS011;38119;52.710;6.398;2023-03-16T01:17:04;10.48;;;4.00;;
52124;SDS011;38119;52.710;6.398;2023-03-16T01:19:32;9.73;;;3.83;;
52124;SDS011;38119;52.710;6.398;2023-03-16T01:22:00;9.90;;;4.45;;
52124;SDS011;38119;52.710;6.398;2023-03-16T01:24:26;9.73;;;3.88;;
52124;SDS011;38119;52.710;6.398;2023-03-16T01:26:52;8.80;;;3.85;;
52124;SDS011;38119;52.710;6.398;2023-03-16T01:29:18;11.70;;;4.55;;
52124;SDS011;38119;52.710;6.398;2023-03-16T01:31:43;8.88;;;4.00;;
52124;SDS011;38119;52.710;6.398;2023-03-16T01:34:09;8.25;;;4.07;;
52124;SDS011;38119;52.710;6.398;2023-03-16T01:36:40;9.15;;;4.00;;
52124;SDS011;38119;52.710;6.398;2023-03-16T01:39:06;8.50;;;4.07;;
52124;SDS011;38119;52.710;6.398;2023-03-16T01:41:32;9.07;;;4.00;;
52124;SDS011;38119;52.710;6.398;2023-03-16T01:43:57;10.15;;;4.53;;
52124;SDS011;38119;52.710;6.398;2023-03-16T01:46:26;10.57;;;4.45;;
52124;SDS011;38119;52.710;6.398;2023-03-16T01:48:54;10.57;;;4.40;;
52124;SDS011;38119;52.710;6.398;2023-03-16T01:54:26;7.97;;;4.18;;
52124;SDS011;38119;52.710;6.398;2023-03-16T01:59:31;11.00;;;4.60;;
52124;SDS011;38119;52.710;6.398;2023-03-16T02:02:01;11.15;;;4.82;;
52124;SDS011;38119;52.710;6.398;2023-03-16T02:07:01;9.48;;;4.15;;
52124;SDS011;38119;52.710;6.398;2023-03-16T02:09:29;9.98;;;4.60;;
52124;SDS011;38119;52.710;6.398;2023-03-16T02:11:56;10.10;;;4.18;;
52124;SDS011;38119;52.710;6.398;2023-03-16T02:14:22;10.35;;;4.95;;
52124;SDS011;38119;52.710;6.398;2023-03-16T02:16:48;11.30;;;4.65;;
52124;SDS011;38119;52.710;6.398;2023-03-16T02:22:11;10.32;;;4.38;;
52124;SDS011;38119;52.710;6.398;2023-03-16T02:24:38;13.23;;;5.22;;
52124;SDS011;38119;52.710;6.398;2023-03-16T02:27:04;8.60;;;4.13;;
52124;SDS011;38119;52.710;6.398;2023-03-16T02:32:23;13.38;;;5.18;;
52124;SDS011;38119;52.710;6.398;2023-03-16T02:34:51;8.68;;;4.10;;
52124;SDS011;38119;52.710;6.398;2023-03-16T02:37:18;9.68;;;4.20;;
52124;SDS011;38119;52.710;6.398;2023-03-16T02:39:44;10.98;;;4.60;;
52124;SDS011;38119;52.710;6.398;2023-03-16T02:42:11;11.50;;;5.07;;
52124;SDS011;38119;52.710;6.398;2023-03-16T02:44:38;8.45;;;4.70;;
52124;SDS011;38119;52.710;6.398;2023-03-16T02:47:15;9.13;;;4.40;;
52124;SDS011;38119;52.710;6.398;2023-03-16T02:50:05;9.02;;;4.53;;
52124;SDS011;38119;52.710;6.398;2023-03-16T02:52:35;8.65;;;4.65;;
52124;SDS011;38119;52.710;6.398;2023-03-16T02:55:03;9.52;;;4.90;;
52124;SDS011;38119;52.710;6.398;2023-03-16T02:57:30;7.68;;;4.47;;
52124;SDS011;38119;52.710;6.398;2023-03-16T02:59:56;9.02;;;4.32;;
52124;SDS011;38119;52.710;6.398;2023-03-16T03:02:21;7.80;;;4.80;;
52124;SDS011;38119;52.710;6.398;2023-03-16T03:04:47;12.45;;;5.30;;
52124;SDS011;38119;52.710;6.398;2023-03-16T03:07:13;10.77;;;5.10;;
52124;SDS011;38119;52.710;6.398;2023-03-16T03:09:40;11.18;;;4.75;;
52124;SDS011;38119;52.710;6.398;2023-03-16T03:12:07;11.45;;;4.95;;
52124;SDS011;38119;52.710;6.398;2023-03-16T03:14:33;12.98;;;5.20;;
52124;SDS011;38119;52.710;6.398;2023-03-16T03:17:02;12.10;;;5.03;;
52124;SDS011;38119;52.710;6.398;2023-03-16T03:19:28;14.18;;;5.40;;
52124;SDS011;38119;52.710;6.398;2023-03-16T03:21:54;10.35;;;5.13;;
52124;SDS011;38119;52.710;6.398;2023-03-16T03:24:20;11.05;;;5.00;;
52124;SDS011;38119;52.710;6.398;2023-03-16T03:26:47;11.07;;;5.05;;
52124;SDS011;38119;52.710;6.398;2023-03-16T03:29:12;11.13;;;5.28;;
52124;SDS011;38119;52.710;6.398;2023-03-16T03:31:38;10.20;;;4.85;;
52124;SDS011;38119;52.710;6.398;2023-03-16T03:34:03;12.55;;;5.22;;
52124;SDS011;38119;52.710;6.398;2023-03-16T03:36:30;7.55;;;4.53;;
52124;SDS011;38119;52.710;6.398;2023-03-16T03:38:57;10.75;;;4.97;;
52124;SDS011;38119;52.710;6.398;2023-03-16T03:41:22;9.95;;;4.68;;
52124;SDS011;38119;52.710;6.398;2023-03-16T03:43:48;10.98;;;4.53;;
52124;SDS011;38119;52.710;6.398;2023-03-16T03:46:13;10.30;;;4.65;;
52124;SDS011;38119;52.710;6.398;2023-03-16T03:48:39;13.82;;;4.50;;
52124;SDS011;38119;52.710;6.398;2023-03-16T03:51:05;8.75;;;5.10;;
52124;SDS011;38119;52.710;6.398;2023-03-16T03:53:31;9.07;;;4.30;;
52124;SDS011;38119;52.710;6.398;2023-03-16T03:55:57;9.20;;;4.47;;
52124;SDS011;38119;52.710;6.398;2023-03-16T03:58:22;10.88;;;4.63;;
52124;SDS011;38119;52.710;6.398;2023-03-16T04:00:48;12.63;;;4.55;;
52124;SDS011;38119;52.710;6.398;2023-03-16T04:03:13;8.90;;;4.57;;
52124;SDS011;38119;52.710;6.398;2023-03-16T04:05:40;11.93;;;4.35;;
52124;SDS011;38119;52.710;6.398;2023-03-16T04:08:05;8.75;;;4.35;;
52124;SDS011;38119;52.710;6.398;2023-03-16T04:10:31;9.52;;;4.50;;
52124;SDS011;38119;52.710;6.398;2023-03-16T04:12:57;9.55;;;4.53;;
52124;SDS011;38119;52.710;6.398;2023-03-16T04:15:24;10.15;;;4.47;;
52124;SDS011;38119;52.710;6.398;2023-03-16T04:17:50;8.80;;;4.05;;
52124;SDS011;38119;52.710;6.398;2023-03-16T04:20:19;10.13;;;4.53;;
52124;SDS011;38119;52.710;6.398;2023-03-16T04:22:47;9.38;;;4.22;;
52124;SDS011;38119;52.710;6.398;2023-03-16T04:25:13;11.73;;;4.97;;
52124;SDS011;38119;52.710;6.398;2023-03-16T04:27:40;10.00;;;4.47;;
52124;SDS011;38119;52.710;6.398;2023-03-16T04:30:08;12.65;;;4.78;;
52124;SDS011;38119;52.710;6.398;2023-03-16T04:32:36;7.88;;;4.13;;
52124;SDS011;38119;52.710;6.398;2023-03-16T04:35:02;7.25;;;3.75;;
52124;SDS011;38119;52.710;6.398;2023-03-16T04:37:28;7.88;;;4.07;;
52124;SDS011;38119;52.710;6.398;2023-03-16T04:39:54;9.55;;;4.28;;
52124;SDS011;38119;52.710;6.398;2023-03-16T04:42:20;13.95;;;4.90;;
52124;SDS011;38119;52.710;6.398;2023-03-16T04:44:46;7.82;;;4.20;;
52124;SDS011;38119;52.710;6.398;2023-03-16T04:47:12;10.00;;;4.32;;
52124;SDS011;38119;52.710;6.398;2023-03-16T04:49:40;10.23;;;4.63;;
52124;SDS011;38119;52.710;6.398;2023-03-16T04:52:06;10.90;;;4.32;;
52124;SDS011;38119;52.710;6.398;2023-03-16T04:54:32;10.32;;;4.28;;
52124;SDS011;38119;52.710;6.398;2023-03-16T04:56:58;8.85;;;4.30;;
52124;SDS011;38119;52.710;6.398;2023-03-16T04:59:25;9.35;;;4.63;;
52124;SDS011;38119;52.710;6.398;2023-03-16T05:01:51;7.00;;;4.50;;
52124;SDS011;38119;52.710;6.398;2023-03-16T05:04:17;8.13;;;4.18;;
52124;SDS011;38119;52.710;6.398;2023-03-16T05:06:43;9.68;;;4.60;;
52124;SDS011;38119;52.710;6.398;2023-03-16T05:09:09;8.07;;;4.15;;
52124;SDS011;38119;52.710;6.398;2023-03-16T05:11:35;9.40;;;4.47;;
52124;SDS011;38119;52.710;6.398;2023-03-16T05:14:01;9.98;;;4.30;;
52124;SDS011;38119;52.710;6.398;2023-03-16T05:16:27;8.40;;;4.25;;
52124;SDS011;38119;52.710;6.398;2023-03-16T05:18:56;9.93;;;4.20;;
52124;SDS011;38119;52.710;6.398;2023-03-16T05:21:22;8.18;;;4.30;;
52124;SDS011;38119;52.710;6.398;2023-03-16T05:23:48;8.23;;;4.30;;
52124;SDS011;38119;52.710;6.398;2023-03-16T05:26:14;10.80;;;4.20;;
52124;SDS011;38119;52.710;6.398;2023-03-16T05:28:40;15.27;;;4.90;;
52124;SDS011;38119;52.710;6.398;2023-03-16T05:31:06;9.00;;;4.50;;
52124;SDS011;38119;52.710;6.398;2023-03-16T05:33:32;8.02;;;4.47;;
52124;SDS011;38119;52.710;6.398;2023-03-16T05:35:58;10.27;;;4.55;;
52124;SDS011;38119;52.710;6.398;2023-03-16T05:38:24;8.65;;;5.10;;
52124;SDS011;38119;52.710;6.398;2023-03-16T05:40:51;10.40;;;4.80;;
52124;SDS011;38119;52.710;6.398;2023-03-16T05:43:19;8.30;;;4.50;;
52124;SDS011;38119;52.710;6.398;2023-03-16T05:45:45;9.00;;;4.47;;
52124;SDS011;38119;52.710;6.398;2023-03-16T05:48:12;12.35;;;4.45;;
52124;SDS011;38119;52.710;6.398;2023-03-16T05:50:39;9.18;;;4.95;;
52124;SDS011;38119;52.710;6.398;2023-03-16T05:53:05;9.38;;;4.55;;
52124;SDS011;38119;52.710;6.398;2023-03-16T05:55:32;9.27;;;4.47;;
52124;SDS011;38119;52.710;6.398;2023-03-16T05:57:58;8.68;;;4.68;;
52124;SDS011;38119;52.710;6.398;2023-03-16T06:00:24;10.77;;;4.97;;
52124;SDS011;38119;52.710;6.398;2023-03-16T06:02:51;9.63;;;5.30;;
52124;SDS011;38119;52.710;6.398;2023-03-16T06:05:18;10.70;;;4.93;;
52124;SDS011;38119;52.710;6.398;2023-03-16T06:07:46;11.45;;;4.80;;
52124;SDS011;38119;52.710;6.398;2023-03-16T06:10:12;11.18;;;4.78;;
52124;SDS011;38119;52.710;6.398;2023-03-16T06:12:38;8.50;;;4.47;;
52124;SDS011;38119;52.710;6.398;2023-03-16T06:15:05;10.50;;;4.72;;
52124;SDS011;38119;52.710;6.398;2023-03-16T06:17:32;11.13;;;5.00;;
52124;SDS011;38119;52.710;6.398;2023-03-16T06:19:58;9.45;;;4.68;;
52124;SDS011;38119;52.710;6.398;2023-03-16T06:22:24;9.23;;;5.03;;
52124;SDS011;38119;52.710;6.398;2023-03-16T06:24:50;9.85;;;5.10;;
52124;SDS011;38119;52.710;6.398;2023-03-16T06:27:16;10.98;;;5.07;;
52124;SDS011;38119;52.710;6.398;2023-03-16T06:29:44;9.63;;;4.13;;
52124;SDS011;38119;52.710;6.398;2023-03-16T06:32:10;9.88;;;4.72;;
52124;SDS011;38119;52.710;6.398;2023-03-16T06:34:36;10.52;;;4.80;;
52124;SDS011;38119;52.710;6.398;2023-03-16T06:37:02;10.45;;;4.50;;
52124;SDS011;38119;52.710;6.398;2023-03-16T06:39:28;8.65;;;4.70;;
52124;SDS011;38119;52.710;6.398;2023-03-16T06:41:54;6.65;;;4.10;;
52124;SDS011;38119;52.710;6.398;2023-03-16T06:44:20;12.88;;;4.43;;
52124;SDS011;38119;52.710;6.398;2023-03-16T06:46:46;6.75;;;4.28;;
52124;SDS011;38119;52.710;6.398;2023-03-16T06:49:11;7.88;;;4.65;;
52124;SDS011;38119;52.710;6.398;2023-03-16T06:51:37;8.20;;;3.95;;
52124;SDS011;38119;52.710;6.398;2023-03-16T06:54:02;9.55;;;4.25;;
52124;SDS011;38119;52.710;6.398;2023-03-16T06:56:28;8.55;;;4.07;;
52124;SDS011;38119;52.710;6.398;2023-03-16T06:58:55;9.00;;;4.45;;
52124;SDS011;38119;52.710;6.398;2023-03-16T07:01:21;9.70;;;4.40;;
52124;SDS011;38119;52.710;6.398;2023-03-16T07:03:47;10.43;;;4.40;;
52124;SDS011;38119;52.710;6.398;2023-03-16T07:06:13;8.75;;;4.25;;
52124;SDS011;38119;52.710;6.398;2023-03-16T07:08:38;8.35;;;4.03;;
52124;SDS011;38119;52.710;6.398;2023-03-16T07:11:04;6.68;;;3.78;;
52124;SDS011;38119;52.710;6.398;2023-03-16T07:13:29;8.35;;;4.55;;
52124;SDS011;38119;52.710;6.398;2023-03-16T07:15:55;9.95;;;4.28;;
52124;SDS011;38119;52.710;6.398;2023-03-16T07:18:20;9.75;;;3.85;;
52124;SDS011;38119;52.710;6.398;2023-03-16T07:20:46;8.40;;;4.18;;
52124;SDS011;38119;52.710;6.398;2023-03-16T07:23:12;6.80;;;3.90;;
52124;SDS011;38119;52.710;6.398;2023-03-16T07:25:38;7.43;;;4.25;;
52124;SDS011;38119;52.710;6.398;2023-03-16T07:28:04;8.80;;;4.13;;
52124;SDS011;38119;52.710;6.398;2023-03-16T07:30:29;9.40;;;4.18;;
52124;SDS011;38119;52.710;6.398;2023-03-16T07:32:55;9.70;;;4.32;;
52124;SDS011;38119;52.710;6.398;2023-03-16T07:35:21;9.73;;;3.95;;
52124;SDS011;38119;52.710;6.398;2023-03-16T07:37:47;9.20;;;4.10;;
52124;SDS011;38119;52.710;6.398;2023-03-16T07:40:13;7.97;;;3.88;;
52124;SDS011;38119;52.710;6.398;2023-03-16T07:42:39;7.88;;;4.15;;
52124;SDS011;38119;52.710;6.398;2023-03-16T07:45:06;8.98;;;4.32;;
52124;SDS011;38119;52.710;6.398;2023-03-16T07:47:32;7.68;;;4.03;;
52124;SDS011;38119;52.710;6.398;2023-03-16T07:49:59;7.93;;;4.18;;
52124;SDS011;38119;52.710;6.398;2023-03-16T07:52:25;10.27;;;4.40;;
52124;SDS011;38119;52.710;6.398;2023-03-16T07:54:51;8.57;;;4.63;;
52124;SDS011;38119;52.710;6.398;2023-03-16T07:57:16;8.45;;;5.00;;
52124;SDS011;38119;52.710;6.398;2023-03-16T07:59:42;8.00;;;4.18;;
52124;SDS011;38119;52.710;6.398;2023-03-16T08:02:12;10.07;;;4.65;;
52124;SDS011;38119;52.710;6.398;2023-03-16T08:04:43;9.68;;;4.75;;
52124;SDS011;38119;52.710;6.398;2023-03-16T08:07:10;9.85;;;4.30;;
52124;SDS011;38119;52.710;6.398;2023-03-16T08:09:40;9.48;;;4.60;;
52124;SDS011;38119;52.710;6.398;2023-03-16T08:12:07;9.98;;;4.57;;
52124;SDS011;38119;52.710;6.398;2023-03-16T08:14:33;8.73;;;4.55;;
52124;SDS011;38119;52.710;6.398;2023-03-16T08:17:07;6.60;;;4.30;;
52124;SDS011;38119;52.710;6.398;2023-03-16T08:19:33;9.98;;;4.78;;
52124;SDS011;38119;52.710;6.398;2023-03-16T08:21:59;12.30;;;4.78;;
52124;SDS011;38119;52.710;6.398;2023-03-16T08:24:27;8.75;;;4.55;;
52124;SDS011;38119;52.710;6.398;2023-03-16T08:26:55;7.40;;;4.72;;
52124;SDS011;38119;52.710;6.398;2023-03-16T08:29:22;7.13;;;4.57;;
52124;SDS011;38119;52.710;6.398;2023-03-16T08:31:49;9.07;;;3.47;;
52124;SDS011;38119;52.710;6.398;2023-03-16T08:34:14;9.07;;;4.55;;
52124;SDS011;38119;52.710;6.398;2023-03-16T08:36:41;9.02;;;4.78;;
52124;SDS011;38119;52.710;6.398;2023-03-16T08:39:07;10.43;;;4.97;;
52124;SDS011;38119;52.710;6.398;2023-03-16T08:41:33;8.98;;;4.82;;
52124;SDS011;38119;52.710;6.398;2023-03-16T08:43:59;9.32;;;4.80;;
52124;SDS011;38119;52.710;6.398;2023-03-16T08:46:28;10.50;;;4.72;;
52124;SDS011;38119;52.710;6.398;2023-03-16T08:48:54;7.88;;;4.82;;
52124;SDS011;38119;52.710;6.398;2023-03-16T08:51:27;6.75;;;4.43;;
52124;SDS011;38119;52.710;6.398;2023-03-16T08:53:53;10.30;;;4.53;;
52124;SDS011;38119;52.710;6.398;2023-03-16T08:56:19;8.00;;;4.70;;
52124;SDS011;38119;52.710;6.398;2023-03-16T08:58:45;9.75;;;4.68;;
52124;SDS011;38119;52.710;6.398;2023-03-16T09:01:12;11.77;;;5.35;;
52124;SDS011;38119;52.710;6.398;2023-03-16T09:03:39;9.15;;;4.90;;
52124;SDS011;38119;52.710;6.398;2023-03-16T09:06:09;9.60;;;4.40;;
52124;SDS011;38119;52.710;6.398;2023-03-16T09:08:38;9.00;;;4.78;;
52124;SDS011;38119;52.710;6.398;2023-03-16T09:11:08;8.75;;;4.43;;
52124;SDS011;38119;52.710;6.398;2023-03-16T09:13:37;9.10;;;4.68;;
52124;SDS011;38119;52.710;6.398;2023-03-16T09:16:06;9.27;;;4.35;;
52124;SDS011;38119;52.710;6.398;2023-03-16T09:18:34;11.02;;;5.35;;
52124;SDS011;38119;52.710;6.398;2023-03-16T09:21:04;12.38;;;5.07;;
52124;SDS011;38119;52.710;6.398;2023-03-16T09:23:31;8.02;;;4.65;;
52124;SDS011;38119;52.710;6.398;2023-03-16T09:26:01;10.90;;;4.68;;
52124;SDS011;38119;52.710;6.398;2023-03-16T09:28:29;9.52;;;4.88;;
52124;SDS011;38119;52.710;6.398;2023-03-16T09:30:58;9.32;;;4.50;;
52124;SDS011;38119;52.710;6.398;2023-03-16T09:33:25;9.68;;;5.15;;
52124;SDS011;38119;52.710;6.398;2023-03-16T09:35:56;13.07;;;5.03;;
52124;SDS011;38119;52.710;6.398;2023-03-16T09:38:25;10.50;;;5.10;;
52124;SDS011;38119;52.710;6.398;2023-03-16T09:40:57;9.30;;;5.25;;
52124;SDS011;38119;52.710;6.398;2023-03-16T09:46:07;9.10;;;4.97;;
52124;SDS011;38119;52.710;6.398;2023-03-16T09:48:40;13.18;;;5.13;;
52124;SDS011;38119;52.710;6.398;2023-03-16T09:51:09;11.75;;;4.82;;
52124;SDS011;38119;52.710;6.398;2023-03-16T09:53:44;10.60;;;5.55;;
52124;SDS011;38119;52.710;6.398;2023-03-16T09:56:18;12.95;;;5.93;;
52124;SDS011;38119;52.710;6.398;2023-03-16T09:58:54;11.52;;;5.53;;
52124;SDS011;38119;52.710;6.398;2023-03-16T10:01:42;11.95;;;5.38;;
52124;SDS011;38119;52.710;6.398;2023-03-16T10:09:53;8.93;;;5.07;;
52124;SDS011;38119;52.710;6.398;2023-03-16T10:12:21;9.65;;;5.30;;
52124;SDS011;38119;52.710;6.398;2023-03-16T10:15:03;10.05;;;5.35;;
52124;SDS011;38119;52.710;6.398;2023-03-16T10:17:41;11.85;;;5.15;;
52124;SDS011;38119;52.710;6.398;2023-03-16T10:20:21;10.25;;;4.90;;
52124;SDS011;38119;52.710;6.398;2023-03-16T10:22:50;9.40;;;5.30;;
52124;SDS011;38119;52.710;6.398;2023-03-16T10:28:15;10.75;;;5.35;;
52124;SDS011;38119;52.710;6.398;2023-03-16T10:30:46;11.88;;;5.65;;
52124;SDS011;38119;52.710;6.398;2023-03-16T10:38:26;13.13;;;5.75;;
52124;SDS011;38119;52.710;6.398;2023-03-16T10:40:52;12.40;;;5.20;;
52124;SDS011;38119;52.710;6.398;2023-03-16T10:43:18;11.27;;;5.30;;
52124;SDS011;38119;52.710;6.398;2023-03-16T10:45:45;11.77;;;5.60;;
52124;SDS011;38119;52.710;6.398;2023-03-16T10:48:19;9.95;;;5.75;;
52124;SDS011;38119;52.710;6.398;2023-03-16T10:53:15;11.75;;;5.47;;
52124;SDS011;38119;52.710;6.398;2023-03-16T10:55:45;13.13;;;5.30;;
52124;SDS011;38119;52.710;6.398;2023-03-16T10:58:21;10.70;;;5.80;;
52124;SDS011;38119;52.710;6.398;2023-03-16T11:00:49;13.75;;;5.43;;
52124;SDS011;38119;52.710;6.398;2023-03-16T11:06:00;11.02;;;5.57;;
52124;SDS011;38119;52.710;6.398;2023-03-16T11:08:30;9.50;;;5.22;;
52124;SDS011;38119;52.710;6.398;2023-03-16T11:11:09;10.25;;;5.22;;
52124;SDS011;38119;52.710;6.398;2023-03-16T11:13:46;8.20;;;5.05;;
52124;SDS011;38119;52.710;6.398;2023-03-16T11:19:16;9.77;;;4.80;;
52124;SDS011;38119;52.710;6.398;2023-03-16T11:27:14;9.57;;;4.72;;
52124;SDS011;38119;52.710;6.398;2023-03-16T11:30:03;8.77;;;5.15;;
52124;SDS011;38119;52.710;6.398;2023-03-16T11:32:32;9.80;;;5.18;;
52124;SDS011;38119;52.710;6.398;2023-03-16T11:35:12;10.20;;;5.13;;
52124;SDS011;38119;52.710;6.398;2023-03-16T11:37:54;9.15;;;4.97;;
52124;SDS011;38119;52.710;6.398;2023-03-16T11:40:37;7.25;;;3.92;;
52124;SDS011;38119;52.710;6.398;2023-03-16T11:45:54;8.73;;;4.20;;
52124;SDS011;38119;52.710;6.398;2023-03-16T11:51:34;9.43;;;4.18;;
52124;SDS011;38119;52.710;6.398;2023-03-16T11:56:46;9.85;;;4.30;;
52124;SDS011;38119;52.710;6.398;2023-03-16T12:12:50;6.68;;;3.95;;
52124;SDS011;38119;52.710;6.398;2023-03-16T12:15:24;6.38;;;3.58;;
52124;SDS011;38119;52.710;6.398;2023-03-16T12:18:02;8.23;;;4.10;;
52124;SDS011;38119;52.710;6.398;2023-03-16T12:20:42;8.45;;;3.72;;
52124;SDS011;38119;52.710;6.398;2023-03-16T12:23:20;7.07;;;3.97;;
52124;SDS011;38119;52.710;6.398;2023-03-16T12:25:52;8.57;;;3.63;;
52124;SDS011;38119;52.710;6.398;2023-03-16T12:28:22;7.82;;;3.47;;
52124;SDS011;38119;52.710;6.398;2023-03-16T12:30:52;9.63;;;4.03;;
52124;SDS011;38119;52.710;6.398;2023-03-16T12:33:33;6.35;;;3.75;;
52124;SDS011;38119;52.710;6.398;2023-03-16T12:38:47;10.23;;;3.72;;
52124;SDS011;38119;52.710;6.398;2023-03-16T12:41:27;7.22;;;3.40;;
52124;SDS011;38119;52.710;6.398;2023-03-16T12:44:14;7.45;;;3.28;;
52124;SDS011;38119;52.710;6.398;2023-03-16T12:47:03;10.35;;;4.20;;
52124;SDS011;38119;52.710;6.398;2023-03-16T12:49:52;6.13;;;3.30;;
52124;SDS011;38119;52.710;6.398;2023-03-16T12:52:18;7.60;;;3.78;;
52124;SDS011;38119;52.710;6.398;2023-03-16T12:54:51;7.55;;;3.58;;
52124;SDS011;38119;52.710;6.398;2023-03-16T12:57:19;11.02;;;4.25;;
52124;SDS011;38119;52.710;6.398;2023-03-16T12:59:53;6.28;;;3.55;;
52124;SDS011;38119;52.710;6.398;2023-03-16T13:02:28;7.88;;;4.07;;
52124;SDS011;38119;52.710;6.398;2023-03-16T13:05:01;8.00;;;4.13;;
52124;SDS011;38119;52.710;6.398;2023-03-16T13:07:36;7.80;;;4.00;;
52124;SDS011;38119;52.710;6.398;2023-03-16T13:10:14;8.07;;;3.95;;
52124;SDS011;38119;52.710;6.398;2023-03-16T13:12:41;8.25;;;4.13;;
52124;SDS011;38119;52.710;6.398;2023-03-16T13:17:47;9.07;;;3.92;;
52124;SDS011;38119;52.710;6.398;2023-03-16T13:25:42;8.82;;;4.28;;
52124;SDS011;38119;52.710;6.398;2023-03-16T13:28:11;7.18;;;3.50;;
52124;SDS011;38119;52.710;6.398;2023-03-16T13:30:42;5.68;;;3.10;;
52124;SDS011;38119;52.710;6.398;2023-03-16T13:35:48;6.30;;;3.45;;
52124;SDS011;38119;52.710;6.398;2023-03-16T13:38:16;6.47;;;3.65;;
52124;SDS011;38119;52.710;6.398;2023-03-16T13:40:46;5.47;;;3.40;;
52124;SDS011;38119;52.710;6.398;2023-03-16T13:43:14;8.00;;;4.07;;
52124;SDS011;38119;52.710;6.398;2023-03-16T13:45:42;6.18;;;3.67;;
52124;SDS011;38119;52.710;6.398;2023-03-16T13:48:12;7.20;;;4.10;;
52124;SDS011;38119;52.710;6.398;2023-03-16T13:50:39;9.85;;;3.95;;
52124;SDS011;38119;52.710;6.398;2023-03-16T13:53:17;8.55;;;4.07;;
52124;SDS011;38119;52.710;6.398;2023-03-16T13:58:18;9.25;;;3.70;;
52124;SDS011;38119;52.710;6.398;2023-03-16T14:00:46;7.32;;;3.80;;
52124;SDS011;38119;52.710;6.398;2023-03-16T14:03:18;8.20;;;3.40;;
52124;SDS011;38119;52.710;6.398;2023-03-16T14:05:46;7.38;;;3.50;;
52124;SDS011;38119;52.710;6.398;2023-03-16T14:08:20;7.03;;;4.07;;
52124;SDS011;38119;52.710;6.398;2023-03-16T14:10:48;6.45;;;3.70;;
52124;SDS011;38119;52.710;6.398;2023-03-16T14:15:51;7.18;;;3.92;;
52124;SDS011;38119;52.710;6.398;2023-03-16T14:18:19;8.77;;;3.80;;
52124;SDS011;38119;52.710;6.398;2023-03-16T14:20:52;7.35;;;4.00;;
52124;SDS011;38119;52.710;6.398;2023-03-16T14:23:23;6.13;;;3.80;;
52124;SDS011;38119;52.710;6.398;2023-03-16T14:25:57;5.88;;;3.80;;
52124;SDS011;38119;52.710;6.398;2023-03-16T14:28:30;7.22;;;3.65;;
52124;SDS011;38119;52.710;6.398;2023-03-16T14:31:01;8.40;;;3.75;;
52124;SDS011;38119;52.710;6.398;2023-03-16T14:33:31;7.05;;;4.07;;
52124;SDS011;38119;52.710;6.398;2023-03-16T14:36:14;6.70;;;3.80;;
52124;SDS011;38119;52.710;6.398;2023-03-16T14:38:42;8.98;;;4.07;;
52124;SDS011;38119;52.710;6.398;2023-03-16T14:41:28;8.15;;;4.32;;
52124;SDS011;38119;52.710;6.398;2023-03-16T14:43:58;7.28;;;3.58;;
52124;SDS011;38119;52.710;6.398;2023-03-16T14:46:31;8.95;;;3.72;;
52124;SDS011;38119;52.710;6.398;2023-03-16T14:49:20;7.32;;;3.80;;
52124;SDS011;38119;52.710;6.398;2023-03-16T14:52:01;5.78;;;3.25;;
52124;SDS011;38119;52.710;6.398;2023-03-16T14:54:31;8.45;;;3.60;;
52124;SDS011;38119;52.710;6.398;2023-03-16T14:57:00;8.05;;;4.10;;
52124;SDS011;38119;52.710;6.398;2023-03-16T14:59:29;7.72;;;3.55;;
52124;SDS011;38119;52.710;6.398;2023-03-16T15:01:55;10.35;;;3.97;;
52124;SDS011;38119;52.710;6.398;2023-03-16T15:04:30;7.55;;;3.40;;
52124;SDS011;38119;52.710;6.398;2023-03-16T15:07:17;12.18;;;3.67;;
52124;SDS011;38119;52.710;6.398;2023-03-16T15:09:49;6.72;;;3.53;;
52124;SDS011;38119;52.710;6.398;2023-03-16T15:12:16;8.68;;;4.03;;
52124;SDS011;38119;52.710;6.398;2023-03-16T15:14:46;7.63;;;3.67;;
52124;SDS011;38119;52.710;6.398;2023-03-16T15:17:31;6.93;;;3.60;;
52124;SDS011;38119;52.710;6.398;2023-03-16T15:19:57;8.18;;;3.70;;
52124;SDS011;38119;52.710;6.398;2023-03-16T15:22:29;7.28;;;3.80;;
52124;SDS011;38119;52.710;6.398;2023-03-16T15:24:56;8.05;;;3.72;;
52124;SDS011;38119;52.710;6.398;2023-03-16T15:27:24;9.55;;;3.45;;
52124;SDS011;38119;52.710;6.398;2023-03-16T15:29:55;10.13;;;3.90;;
52124;SDS011;38119;52.710;6.398;2023-03-16T15:32:21;6.47;;;3.58;;
52124;SDS011;38119;52.710;6.398;2023-03-16T15:34:47;9.02;;;3.45;;
52124;SDS011;38119;52.710;6.398;2023-03-16T15:37:17;6.70;;;3.47;;
52124;SDS011;38119;52.710;6.398;2023-03-16T15:39:47;8.63;;;3.75;;
52124;SDS011;38119;52.710;6.398;2023-03-16T15:42:14;7.93;;;3.60;;
52124;SDS011;38119;52.710;6.398;2023-03-16T15:44:41;8.23;;;3.92;;
52124;SDS011;38119;52.710;6.398;2023-03-16T15:47:08;7.22;;;3.92;;
52124;SDS011;38119;52.710;6.398;2023-03-16T15:49:34;8.38;;;3.42;;
52124;SDS011;38119;52.710;6.398;2023-03-16T15:52:01;6.28;;;3.42;;
52124;SDS011;38119;52.710;6.398;2023-03-16T15:54:26;9.00;;;3.83;;
52124;SDS011;38119;52.710;6.398;2023-03-16T15:56:56;12.82;;;3.47;;
52124;SDS011;38119;52.710;6.398;2023-03-16T15:59:22;8.52;;;3.85;;
52124;SDS011;38119;52.710;6.398;2023-03-16T16:01:48;8.57;;;4.15;;
52124;SDS011;38119;52.710;6.398;2023-03-16T16:04:16;5.70;;;3.17;;
52124;SDS011;38119;52.710;6.398;2023-03-16T16:06:44;7.78;;;3.47;;
52124;SDS011;38119;52.710;6.398;2023-03-16T16:09:11;6.10;;;3.47;;
52124;SDS011;38119;52.710;6.398;2023-03-16T16:11:37;6.07;;;3.35;;
52124;SDS011;38119;52.710;6.398;2023-03-16T16:14:05;6.95;;;3.50;;
52124;SDS011;38119;52.710;6.398;2023-03-16T16:16:37;6.90;;;3.15;;